This is the latest recevied weather packets stored in our database for station/object DB8NZ-11. If no packets are shown the sender has not sent any weather packets the latest 10 day(s).
| Time | Temp. | Humidity | Pressure | Rain* | Wind** | Luminosity | Snow |
|---|---|---|---|---|---|---|---|
| 1777312221 | 19.44° C | 34% | 1024 hPa | - | - | - | - |
| 1777311321 | 20.56° C | 30% | 1024 hPa | - | - | - | - |
| 1777310421 | 21.11° C | 27% | 1023.9 hPa | - | - | - | - |
| 1777309521 | 20.56° C | 25% | 1023.9 hPa | - | - | - | - |
| 1777308621 | 22.22° C | 24% | 1024 hPa | - | - | - | - |
| 1777307721 | 21.11° C | 26% | 1024.1 hPa | - | - | - | - |
| 1777306821 | 21.67° C | 25% | 1024.2 hPa | - | - | - | - |
| 1777305921 | 22.22° C | 22% | 1024.3 hPa | - | - | - | - |
| 1777305021 | 22.78° C | 23% | 1024.3 hPa | - | - | - | - |
| 1777304121 | 23.33° C | 22% | 1024.3 hPa | - | - | - | - |
| 1777303220 | 23.33° C | 22% | 1024.5 hPa | - | - | - | - |
| 1777302320 | 23.33° C | 27% | 1024.8 hPa | - | - | - | - |
| 1777301420 | 24.44° C | 22% | 1024.9 hPa | - | - | - | - |
| 1777300520 | 24.44° C | 19% | 1024.9 hPa | - | - | - | - |
| 1777299620 | 25° C | 19% | 1025.1 hPa | - | - | - | - |
| 1777298720 | 25° C | 19% | 1025.2 hPa | - | - | - | - |
| 1777297820 | 26.11° C | 19% | 1025.4 hPa | - | - | - | - |
| 1777296920 | 25° C | 19% | 1025.7 hPa | - | - | - | - |
| 1777296020 | 24.44° C | 20% | 1025.9 hPa | - | - | - | - |
| 1777295120 | 25° C | 18% | 1026 hPa | - | - | - | - |
| 1777294220 | 25.56° C | 18% | 1026 hPa | - | - | - | - |
| 1777293320 | 24.44° C | 20% | 1026.2 hPa | - | - | - | - |
| 1777292419 | 25.56° C | 20% | 1026.3 hPa | - | - | - | - |
| 1777291519 | 25° C | 21% | 1026.4 hPa | - | - | - | - |
| 1777290619 | 25° C | 19% | 1026.6 hPa | - | - | - | - |
* Rain since midnight (hover to see other rain measurements)
** Current wind speed in m/s (hover to see current wind gust speed)